Time;durP1;ratioP1;P1;durP2;ratioP2;P2;SDS_P1;SDS_P2;PMS_P1;PMS_P2;Temp;Humidity;BMP_temperature;BMP_pressure;BME280_temperature;BME280_humidity;BME280_pressure;Samples;Min_cycle;Max_cycle;Signal;HPM_P1;HPM_P2
2023/06/19 00:01:07;;;;;;;11.57;10.30;;;22.20;74.00;;;;;;6208858;28;20054;-84
2023/06/19 00:04:10;;;;;;;10.68;9.68;;;22.20;73.90;;;;;;6209919;28;20054;-84
2023/06/19 00:07:11;;;;;;;15.73;10.50;;;22.10;73.70;;;;;;6208823;28;20409;-85
2023/06/19 00:10:14;;;;;;;11.00;10.05;;;22.20;73.80;;;;;;6207910;28;20085;-83
2023/06/19 00:13:16;;;;;;;9.10;8.20;;;22.20;73.90;;;;;;6204741;28;20420;-82
2023/06/19 00:16:19;;;;;;;9.52;8.63;;;22.20;74.00;;;;;;6205249;28;20050;-82
2023/06/19 00:19:20;;;;;;;8.00;7.30;;;22.30;74.10;;;;;;6206155;28;20058;-84
2023/06/19 00:22:22;;;;;;;7.90;6.88;;;22.30;74.30;;;;;;6199994;28;20116;-84
2023/06/19 00:25:25;;;;;;;10.77;7.03;;;22.30;74.60;;;;;;6200714;28;20428;-84
2023/06/19 00:28:27;;;;;;;11.63;6.63;;;22.40;74.60;;;;;;6198888;28;20058;-83
2023/06/19 00:31:29;;;;;;;11.15;6.75;;;22.50;74.50;;;;;;6201472;28;20046;-86
2023/06/19 00:34:31;;;;;;;9.02;5.78;;;22.50;74.50;;;;;;6203141;28;20062;-85
2023/06/19 00:37:33;;;;;;;10.23;7.40;;;22.60;74.60;;;;;;6204924;28;20374;-83
2023/06/19 00:40:36;;;;;;;6.85;6.25;;;22.60;74.70;;;;;;6209655;28;20501;-84
2023/06/19 00:43:38;;;;;;;7.22;6.53;;;22.60;74.80;;;;;;6204997;28;20049;-83
2023/06/19 00:46:41;;;;;;;9.63;6.43;;;22.60;75.10;;;;;;6203746;28;20043;-83
2023/06/19 00:49:43;;;;;;;4.57;4.15;;;22.50;75.20;;;;;;6203211;28;20046;-84
2023/06/19 00:52:45;;;;;;;5.15;4.75;;;22.50;75.50;;;;;;6203601;28;20100;-82
2023/06/19 00:55:51;;;;;;;7.50;4.57;;;22.50;75.60;;;;;;6206455;28;20050;-83
2023/06/19 00:58:54;;;;;;;7.72;4.35;;;22.50;76.00;;;;;;6201282;28;20057;-82
2023/06/19 01:01:57;;;;;;;12.55;3.45;;;22.50;76.10;;;;;;6201148;28;20043;-83
2023/06/19 01:04:58;;;;;;;8.93;3.63;;;22.50;76.70;;;;;;6201501;28;20046;-83
2023/06/19 01:08:04;;;;;;;5.95;3.65;;;22.40;77.60;;;;;;6205718;28;20047;-83
2023/06/19 01:11:10;;;;;;;6.60;3.80;;;22.30;79.00;;;;;;6206300;28;20544;-84
2023/06/19 01:14:18;;;;;;;4.40;3.80;;;22.20;79.70;;;;;;6204953;28;20042;-82
2023/06/19 01:17:20;;;;;;;8.65;4.05;;;22.00;82.20;;;;;;6202941;28;20050;-83
2023/06/19 01:20:22;;;;;;;4.57;3.83;;;21.70;84.60;;;;;;6203273;28;20538;-81
2023/06/19 01:23:25;;;;;;;3.67;3.20;;;21.30;88.00;;;;;;6201387;28;20050;-83
2023/06/19 01:26:27;;;;;;;4.32;3.92;;;21.00;90.70;;;;;;6197888;28;20061;-82
2023/06/19 01:29:29;;;;;;;4.80;3.90;;;20.70;92.20;;;;;;6202454;28;20050;-82
2023/06/19 01:32:38;;;;;;;6.90;4.15;;;20.40;93.70;;;;;;6202808;28;20046;-83
2023/06/19 01:35:44;;;;;;;4.20;3.80;;;20.20;94.60;;;;;;6202206;28;20065;-80
2023/06/19 01:38:49;;;;;;;5.63;4.35;;;20.00;95.70;;;;;;6205596;28;20417;-84
2023/06/19 01:41:52;;;;;;;5.00;4.10;;;19.90;96.50;;;;;;6204864;28;20149;-82
2023/06/19 01:44:54;;;;;;;5.50;3.90;;;19.60;97.10;;;;;;6205582;28;20042;-82
2023/06/19 01:47:56;;;;;;;5.40;4.88;;;19.50;97.80;;;;;;6204391;28;20054;-82
2023/06/19 01:50:58;;;;;;;7.70;4.53;;;19.30;98.50;;;;;;6205367;28;20061;-82
2023/06/19 01:54:01;;;;;;;6.65;4.28;;;19.20;99.30;;;;;;6205232;28;20046;-83
2023/06/19 01:57:04;;;;;;;5.63;4.70;;;19.20;99.90;;;;;;6203618;28;20057;-80
2023/06/19 02:00:09;;;;;;;4.97;3.95;;;19.20;99.90;;;;;;6202186;28;20057;-79
2023/06/19 02:03:11;;;;;;;5.18;4.72;;;19.10;99.90;;;;;;6203036;28;20056;-84
2023/06/19 02:06:13;;;;;;;4.10;3.70;;;19.10;99.90;;;;;;6208830;28;20050;-84
2023/06/19 02:09:16;;;;;;;7.20;4.15;;;19.10;99.90;;;;;;6207754;28;20054;-82
2023/06/19 02:12:18;;;;;;;5.65;3.63;;;19.00;99.90;;;;;;6209534;28;20046;-84
2023/06/19 02:15:19;;;;;;;4.45;4.05;;;19.10;99.90;;;;;;6209199;28;20049;-84
2023/06/19 02:18:21;;;;;;;4.85;3.92;;;19.10;99.90;;;;;;6207195;28;20061;-84
2023/06/19 02:21:23;;;;;;;4.72;4.20;;;19.00;99.90;;;;;;6205991;28;20042;-82
2023/06/19 02:24:26;;;;;;;5.10;3.47;;;19.00;99.90;;;;;;6204708;28;20050;-81
2023/06/19 02:27:28;;;;;;;7.95;4.47;;;18.90;99.90;;;;;;6203123;28;20513;-81
2023/06/19 02:30:29;;;;;;;5.13;4.63;;;18.90;99.90;;;;;;6203273;28;20046;-82
2023/06/19 02:33:32;;;;;;;5.63;4.28;;;18.90;99.90;;;;;;6203552;28;20053;-80
2023/06/19 02:36:35;;;;;;;5.18;4.65;;;18.90;99.90;;;;;;6204822;28;20050;-81
2023/06/19 02:39:38;;;;;;;5.72;4.50;;;19.00;99.90;;;;;;6202701;28;20065;-81
2023/06/19 02:42:39;;;;;;;5.10;4.47;;;18.90;99.90;;;;;;6203154;28;20077;-82
2023/06/19 02:45:41;;;;;;;4.22;3.83;;;18.90;99.90;;;;;;6203822;28;20431;-82
2023/06/19 02:48:43;;;;;;;4.45;4.05;;;19.00;99.90;;;;;;6183301;28;20055;-82
2023/06/19 02:51:44;;;;;;;6.95;4.15;;;19.00;99.90;;;;;;6183576;28;20043;-81
2023/06/19 02:54:47;;;;;;;4.63;4.22;;;19.00;99.90;;;;;;6184548;28;20043;-83
2023/06/19 02:57:49;;;;;;;4.90;3.92;;;19.10;99.90;;;;;;6182997;28;20043;-82
2023/06/19 03:00:51;;;;;;;3.97;3.58;;;19.10;99.90;;;;;;6181764;28;20050;-83
2023/06/19 03:03:52;;;;;;;4.30;3.90;;;19.10;99.90;;;;;;6179410;28;20549;-82
2023/06/19 03:06:54;;;;;;;4.60;4.20;;;19.10;99.90;;;;;;6178634;28;20047;-81
2023/06/19 03:09:57;;;;;;;5.15;4.15;;;19.10;99.90;;;;;;6180632;28;20043;-83
2023/06/19 03:12:59;;;;;;;7.25;4.97;;;19.10;99.90;;;;;;6180220;28;20431;-82
2023/06/19 03:16:01;;;;;;;4.78;4.32;;;19.20;99.90;;;;;;6179484;28;20047;-84
2023/06/19 03:19:03;;;;;;;7.15;4.18;;;19.20;99.90;;;;;;6181947;28;20043;-81
2023/06/19 03:22:05;;;;;;;4.93;4.50;;;19.20;99.90;;;;;;6173960;28;20046;-81
2023/06/19 03:25:09;;;;;;;7.57;5.20;;;19.20;99.90;;;;;;6189857;28;20153;-81
2023/06/19 03:28:11;;;;;;;6.65;5.97;;;19.20;99.90;;;;;;6199227;28;20053;-83
2023/06/19 03:31:12;;;;;;;5.30;4.80;;;19.20;99.90;;;;;;6199212;28;20054;-80
2023/06/19 03:34:14;;;;;;;5.05;4.55;;;19.20;99.90;;;;;;6198157;28;20616;-81
2023/06/19 03:37:16;;;;;;;4.85;4.20;;;19.20;99.90;;;;;;6198880;28;20125;-81
2023/06/19 03:40:19;;;;;;;18.08;6.65;;;19.10;99.90;;;;;;6200084;28;20054;-80
2023/06/19 03:43:21;;;;;;;7.25;4.43;;;19.20;99.90;;;;;;6200111;28;20046;-80
2023/06/19 03:46:22;;;;;;;4.32;3.90;;;19.20;99.90;;;;;;6199416;28;20047;-79
2023/06/19 03:49:24;;;;;;;4.60;4.20;;;19.20;99.90;;;;;;6198575;28;20137;-79
2023/06/19 03:52:26;;;;;;;6.70;5.28;;;19.20;99.90;;;;;;6199838;28;20054;-80
2023/06/19 03:55:29;;;;;;;5.20;4.70;;;19.30;99.90;;;;;;6197779;28;20039;-79
2023/06/19 03:58:30;;;;;;;7.30;5.20;;;19.30;99.90;;;;;;6198505;28;20046;-79
2023/06/19 04:01:32;;;;;;;5.90;4.00;;;19.40;99.90;;;;;;6198513;28;20046;-79
2023/06/19 04:04:34;;;;;;;9.30;5.40;;;19.40;99.90;;;;;;6201392;28;20060;-80
2023/06/19 04:07:36;;;;;;;4.60;4.20;;;19.50;99.90;;;;;;6198906;28;20497;-77
2023/06/19 04:10:39;;;;;;;6.00;4.40;;;19.50;99.90;;;;;;6198800;28;20144;-78
2023/06/19 04:13:41;;;;;;;3.53;3.22;;;19.50;99.90;;;;;;6198584;28;20061;-77
2023/06/19 04:16:42;;;;;;;4.60;4.20;;;19.60;99.90;;;;;;6198743;28;20417;-78
2023/06/19 04:19:44;;;;;;;5.75;4.18;;;19.60;99.90;;;;;;6198173;28;20552;-80
2023/06/19 04:22:46;;;;;;;5.80;4.47;;;19.60;99.90;;;;;;6198605;28;20050;-77
2023/06/19 04:25:52;;;;;;;5.60;4.70;;;19.70;99.90;;;;;;6199495;28;20039;-80
2023/06/19 04:28:53;;;;;;;5.65;4.47;;;19.70;99.90;;;;;;6198653;28;20133;-80
2023/06/19 04:31:55;;;;;;;4.53;4.07;;;19.80;99.90;;;;;;6201090;28;20046;-81
2023/06/19 04:34:57;;;;;;;4.75;4.30;;;19.90;99.90;;;;;;6199533;28;20051;-80
2023/06/19 04:38:00;;;;;;;5.28;4.78;;;20.20;99.90;;;;;;6198408;28;20046;-80
2023/06/19 04:41:04;;;;;;;4.97;4.57;;;20.40;99.90;;;;;;6199609;28;20063;-80
2023/06/19 04:44:06;;;;;;;4.28;3.88;;;20.70;99.90;;;;;;6199026;28;20057;-80
2023/06/19 04:47:07;;;;;;;5.13;4.45;;;20.70;99.90;;;;;;6198228;28;20052;-80
2023/06/19 04:50:09;;;;;;;4.30;3.60;;;20.70;99.90;;;;;;6197866;28;20053;-80
2023/06/19 04:53:11;;;;;;;5.28;3.97;;;21.00;99.90;;;;;;6198771;28;20402;-80
2023/06/19 04:56:15;;;;;;;6.50;4.43;;;21.30;99.90;;;;;;6199031;28;20058;-79
2023/06/19 04:59:17;;;;;;;4.15;3.65;;;21.80;99.90;;;;;;6197801;28;20062;-80
2023/06/19 05:02:19;;;;;;;3.88;3.53;;;22.20;99.90;;;;;;6199739;28;20497;-80
2023/06/19 05:05:21;;;;;;;4.57;4.18;;;22.70;99.90;;;;;;6198318;28;20505;-81
2023/06/19 05:08:23;;;;;;;6.55;4.03;;;22.70;99.90;;;;;;6200090;28;20134;-80
2023/06/19 05:11:26;;;;;;;4.65;4.13;;;22.60;99.90;;;;;;6200178;28;20058;-80
2023/06/19 05:14:27;;;;;;;4.68;4.25;;;22.40;99.90;;;;;;6205299;28;20053;-80
2023/06/19 05:17:29;;;;;;;4.32;3.92;;;22.30;99.90;;;;;;6203259;28;20053;-81
2023/06/19 05:20:31;;;;;;;5.07;4.57;;;22.60;99.90;;;;;;6204652;28;20051;-80
2023/06/19 05:23:32;;;;;;;4.80;3.83;;;22.70;99.90;;;;;;6200758;28;20146;-80
2023/06/19 05:26:35;;;;;;;4.10;3.72;;;22.80;99.90;;;;;;6199984;28;20057;-81
2023/06/19 05:29:37;;;;;;;5.00;4.00;;;22.90;99.90;;;;;;6200286;28;20050;-80
2023/06/19 05:32:39;;;;;;;5.00;4.00;;;23.10;99.90;;;;;;6199984;28;20042;-80
2023/06/19 05:35:40;;;;;;;6.13;3.53;;;23.90;99.90;;;;;;6199629;28;20042;-79
2023/06/19 05:38:42;;;;;;;7.53;4.63;;;25.00;99.40;;;;;;6198735;28;20043;-80
2023/06/19 05:41:46;;;;;;;6.80;4.35;;;26.00;97.30;;;;;;6197879;28;20042;-81
2023/06/19 05:44:48;;;;;;;6.10;3.60;;;27.00;95.50;;;;;;6198356;28;20052;-81
2023/06/19 05:47:49;;;;;;;4.45;4.05;;;27.90;93.30;;;;;;6198471;28;20382;-81
2023/06/19 05:50:51;;;;;;;3.67;3.40;;;28.50;90.60;;;;;;6200186;28;20671;-79
2023/06/19 05:53:53;;;;;;;5.65;3.95;;;28.70;87.50;;;;;;6198804;28;20049;-79
2023/06/19 05:56:56;;;;;;;3.75;3.45;;;28.80;86.80;;;;;;6199396;28;20436;-79
2023/06/19 05:59:57;;;;;;;3.70;3.40;;;29.10;84.00;;;;;;6199836;28;20784;-79
2023/06/19 06:03:00;;;;;;;4.05;3.55;;;29.30;82.80;;;;;;6203600;28;20042;-79
2023/06/19 06:06:03;;;;;;;3.95;3.35;;;29.30;80.50;;;;;;6205566;28;20129;-79
2023/06/19 06:09:05;;;;;;;3.60;3.15;;;29.40;79.30;;;;;;6206153;28;20061;-80
2023/06/19 06:12:09;;;;;;;5.13;3.45;;;29.30;78.00;;;;;;6206389;28;20061;-80
2023/06/19 06:15:11;;;;;;;2.97;2.78;;;29.10;78.00;;;;;;6208297;28;20051;-80
2023/06/19 06:18:12;;;;;;;4.80;3.42;;;29.30;77.20;;;;;;6208238;28;20420;-80
2023/06/19 06:21:14;;;;;;;4.20;3.70;;;29.30;74.50;;;;;;6210929;28;20046;-80
2023/06/19 06:24:16;;;;;;;3.40;2.85;;;29.40;74.40;;;;;;6212655;28;20154;-80
2023/06/19 06:27:19;;;;;;;2.88;2.67;;;29.60;73.30;;;;;;6210904;28;20134;-80
2023/06/19 06:30:21;;;;;;;5.18;3.17;;;29.90;72.80;;;;;;6208586;28;20421;-80
2023/06/19 06:33:22;;;;;;;6.70;3.38;;;30.50;71.60;;;;;;6205664;28;20417;-80
2023/06/19 06:36:24;;;;;;;3.15;2.85;;;30.70;69.20;;;;;;6205433;28;20142;-79
2023/06/19 06:39:26;;;;;;;3.22;2.92;;;30.90;68.00;;;;;;6204212;28;20216;-81
2023/06/19 06:42:29;;;;;;;2.38;2.17;;;30.70;67.50;;;;;;6206583;28;20675;-80
2023/06/19 06:45:31;;;;;;;2.90;2.10;;;30.40;66.20;;;;;;6205266;28;20050;-80
2023/06/19 06:48:33;;;;;;;3.42;2.58;;;30.20;67.10;;;;;;6205650;28;20046;-81
2023/06/19 06:51:34;;;;;;;2.83;2.63;;;30.70;67.30;;;;;;6203673;28;20046;-79
2023/06/19 06:54:36;;;;;;;3.50;2.50;;;31.50;65.80;;;;;;6202512;28;20042;-79
2023/06/19 06:57:39;;;;;;;2.70;2.50;;;31.50;63.30;;;;;;6203032;28;20046;-80
2023/06/19 07:00:41;;;;;;;3.92;2.67;;;30.90;63.30;;;;;;6203619;28;20046;-80
2023/06/19 07:03:43;;;;;;;2.28;2.05;;;30.00;64.30;;;;;;6203157;28;20462;-80
2023/06/19 07:06:44;;;;;;;2.40;2.20;;;29.20;65.40;;;;;;6203900;28;20046;-80
2023/06/19 07:09:46;;;;;;;3.55;2.55;;;28.20;66.60;;;;;;6203833;28;20053;-80
2023/06/19 07:12:51;;;;;;;2.70;2.50;;;27.30;68.70;;;;;;6126455;28;20158;-79
2023/06/19 07:15:52;;;;;;;4.53;3.33;;;26.70;70.20;;;;;;6180247;28;20050;-79
2023/06/19 07:18:54;;;;;;;3.85;3.53;;;26.20;71.60;;;;;;6179168;28;20042;-78
2023/06/19 07:21:56;;;;;;;2.83;2.47;;;25.80;72.80;;;;;;6167331;28;20047;-80
2023/06/19 07:24:58;;;;;;;3.28;2.97;;;25.60;74.20;;;;;;6164560;28;20059;-81
2023/06/19 07:28:01;;;;;;;4.40;2.95;;;25.30;75.30;;;;;;6169224;28;20668;-79
2023/06/19 07:31:03;;;;;;;5.43;3.88;;;25.10;76.60;;;;;;6169249;28;20058;-80
2023/06/19 07:34:04;;;;;;;4.28;3.17;;;25.00;77.50;;;;;;6168724;28;20367;-80
2023/06/19 07:37:06;;;;;;;3.40;3.10;;;24.90;78.60;;;;;;6168141;28;20047;-79
2023/06/19 07:40:09;;;;;;;3.60;3.30;;;24.90;79.50;;;;;;6166773;28;20051;-80
2023/06/19 07:43:12;;;;;;;3.50;3.20;;;24.90;80.10;;;;;;6167709;28;20055;-79
2023/06/19 07:46:15;;;;;;;3.53;3.17;;;24.80;80.90;;;;;;6168247;28;20061;-81
2023/06/19 07:49:16;;;;;;;6.10;3.70;;;24.80;81.50;;;;;;6169542;28;20046;-81
2023/06/19 07:52:18;;;;;;;7.22;3.58;;;24.70;82.50;;;;;;6174606;28;20051;-78
2023/06/19 07:55:20;;;;;;;5.00;4.53;;;24.70;83.60;;;;;;6173266;28;20042;-81
2023/06/19 07:58:23;;;;;;;3.65;3.15;;;25.00;84.10;;;;;;6172749;28;20550;-81
2023/06/19 08:01:24;;;;;;;4.32;3.90;;;25.30;83.80;;;;;;6167919;28;20138;-80
2023/06/19 08:04:26;;;;;;;3.85;3.53;;;25.90;83.60;;;;;;6172594;28;20059;-81
2023/06/19 08:07:28;;;;;;;4.82;3.72;;;26.40;82.30;;;;;;6171137;28;20074;-81
2023/06/19 08:10:30;;;;;;;4.20;3.80;;;26.80;81.30;;;;;;6173392;28;20051;-78
2023/06/19 08:13:33;;;;;;;5.05;4.32;;;27.30;79.60;;;;;;6176681;28;20070;-80
2023/06/19 08:16:34;;;;;;;4.47;4.07;;;28.10;78.60;;;;;;6198089;28;20042;-82
2023/06/19 08:19:38;;;;;;;8.63;4.53;;;29.00;76.10;;;;;;6202583;28;20042;-79
2023/06/19 08:22:40;;;;;;;4.57;3.15;;;29.90;73.00;;;;;;6200261;28;20521;-82
2023/06/19 08:25:42;;;;;;;4.55;3.63;;;30.20;70.90;;;;;;6191620;28;20433;-81
2023/06/19 08:28:45;;;;;;;5.43;3.53;;;30.60;70.30;;;;;;6201824;28;20061;-83
2023/06/19 08:31:46;;;;;;;4.75;3.85;;;31.00;68.30;;;;;;6201004;28;20424;-82
2023/06/19 08:34:48;;;;;;;11.73;4.95;;;31.30;67.30;;;;;;6196349;28;20045;-78
2023/06/19 08:37:50;;;;;;;3.28;2.97;;;31.80;66.20;;;;;;6200930;28;20058;-80
2023/06/19 08:40:52;;;;;;;4.15;3.58;;;32.40;64.70;;;;;;6203884;28;20050;-80
2023/06/19 08:43:55;;;;;;;8.45;3.70;;;32.90;62.90;;;;;;6198273;28;20489;-82
2023/06/19 08:46:58;;;;;;;6.97;3.25;;;33.10;61.30;;;;;;6197227;28;20046;-82
2023/06/19 08:50:00;;;;;;;6.50;4.50;;;32.90;60.50;;;;;;6194091;28;20042;-81
2023/06/19 08:53:02;;;;;;;5.80;4.07;;;32.70;60.50;;;;;;6195381;28;20046;-81
2023/06/19 08:56:04;;;;;;;9.88;5.93;;;32.30;60.40;;;;;;6197963;28;20050;-82
2023/06/19 08:59:12;;;;;;;12.40;4.32;;;32.20;60.70;;;;;;6197550;28;20054;-81
2023/06/19 09:02:14;;;;;;;4.30;3.90;;;32.10;60.80;;;;;;6187317;28;20090;-81
2023/06/19 09:05:17;;;;;;;5.32;4.65;;;32.20;60.50;;;;;;6197328;28;20054;-81
2023/06/19 09:08:19;;;;;;;5.57;3.72;;;32.10;60.60;;;;;;6183977;28;20050;-81
2023/06/19 09:11:21;;;;;;;5.22;3.90;;;32.10;60.60;;;;;;6197321;28;20082;-81
2023/06/19 09:14:32;;;;;;;8.10;4.78;;;31.90;60.70;;;;;;6197519;28;20046;-81
2023/06/19 09:17:34;;;;;;;8.65;5.05;;;31.80;60.80;;;;;;6197278;28;20042;-81
2023/06/19 09:20:41;;;;;;;5.18;4.68;;;31.70;60.80;;;;;;6197462;28;20058;-81
2023/06/19 09:23:43;;;;;;;5.97;4.75;;;31.40;61.00;;;;;;6196387;28;20055;-80
2023/06/19 09:26:45;;;;;;;8.90;4.75;;;31.30;62.40;;;;;;6196287;28;20545;-81
2023/06/19 09:29:49;;;;;;;5.47;4.38;;;31.50;61.80;;;;;;6196363;28;20038;-81
2023/06/19 09:32:52;;;;;;;7.95;4.10;;;31.70;61.70;;;;;;6197104;28;20109;-81
2023/06/19 09:35:55;;;;;;;7.10;4.32;;;31.80;61.80;;;;;;6197060;28;20050;-81
2023/06/19 09:39:00;;;;;;;6.25;4.55;;;32.10;61.40;;;;;;6197007;28;20058;-81
2023/06/19 09:42:04;;;;;;;5.47;4.75;;;32.10;60.70;;;;;;6197494;28;20087;-81
2023/06/19 09:45:09;;;;;;;6.28;4.80;;;32.00;60.90;;;;;;6197278;28;20054;-81
2023/06/19 09:48:14;;;;;;;4.97;4.30;;;31.90;60.60;;;;;;6198816;28;20049;-80
2023/06/19 09:51:19;;;;;;;4.88;4.47;;;31.80;60.50;;;;;;6201650;28;20055;-81
2023/06/19 09:54:22;;;;;;;5.03;4.40;;;31.60;60.80;;;;;;6202276;28;20061;-81
2023/06/19 09:57:24;;;;;;;4.10;3.80;;;31.60;60.70;;;;;;6201304;28;20046;-81
2023/06/19 10:00:31;;;;;;;8.73;3.90;;;31.70;60.50;;;;;;6203185;28;20064;-81
2023/06/19 10:03:33;;;;;;;4.50;4.10;;;31.70;60.50;;;;;;6202816;28;20069;-81
2023/06/19 10:06:43;;;;;;;6.05;4.50;;;31.70;60.10;;;;;;6203076;28;20053;-82
2023/06/19 10:10:05;;;;;;;3.92;3.63;;;31.60;60.30;;;;;;6203460;28;20464;-81
2023/06/19 10:13:15;;;;;;;4.25;3.85;;;31.40;60.70;;;;;;6203396;28;20158;-81
2023/06/19 10:16:24;;;;;;;5.35;3.80;;;31.20;61.00;;;;;;6202735;28;20047;-81
2023/06/19 10:19:26;;;;;;;4.55;3.75;;;31.10;61.50;;;;;;6202387;28;20532;-81
2023/06/19 10:22:31;;;;;;;4.03;3.72;;;31.00;61.80;;;;;;6202659;28;20055;-81
2023/06/19 10:25:35;;;;;;;4.45;3.70;;;31.10;61.80;;;;;;6203309;28;20054;-82
2023/06/19 10:28:36;;;;;;;8.88;3.83;;;31.30;61.80;;;;;;6198953;28;20054;-82
2023/06/19 10:31:39;;;;;;;10.52;4.55;;;31.60;61.60;;;;;;6203235;28;20046;-81
2023/06/19 10:34:47;;;;;;;4.65;4.32;;;32.10;60.70;;;;;;6202608;28;20057;-82
2023/06/19 10:37:49;;;;;;;;;;;32.30;60.00;;;;;;6202678;28;20046;-82
2023/06/19 10:40:50;;;;;;;3.55;3.35;;;32.50;59.80;;;;;;6203097;28;20277;-82
2023/06/19 10:43:57;;;;;;;4.20;3.88;;;32.70;59.30;;;;;;6200401;28;20066;-81
2023/06/19 10:47:00;;;;;;;4.20;3.90;;;32.90;58.50;;;;;;6201965;28;20057;-82
2023/06/19 10:50:02;;;;;;;3.95;3.55;;;33.10;57.90;;;;;;6201119;28;20066;-82
2023/06/19 10:53:04;;;;;;;7.93;3.80;;;33.10;57.60;;;;;;6202316;28;20050;-81
2023/06/19 10:56:06;;;;;;;6.63;4.28;;;33.30;57.60;;;;;;6203515;28;20046;-81
2023/06/19 10:59:09;;;;;;;4.60;4.22;;;33.50;57.00;;;;;;6201301;28;20137;-81
2023/06/19 11:02:12;;;;;;;4.05;3.75;;;33.60;57.00;;;;;;6201528;28;20137;-82
2023/06/19 11:05:15;;;;;;;5.95;3.85;;;33.90;56.70;;;;;;6200891;28;20054;-81
2023/06/19 11:08:19;;;;;;;4.45;4.07;;;34.10;56.00;;;;;;6201339;28;20136;-82
2023/06/19 11:11:21;;;;;;;4.68;4.25;;;34.20;55.70;;;;;;6201507;28;20059;-83
2023/06/19 11:14:22;;;;;;;6.72;3.60;;;34.40;55.00;;;;;;6200588;28;20046;-82
2023/06/19 11:17:26;;;;;;;5.60;4.05;;;34.30;54.60;;;;;;6200677;28;20073;-82
2023/06/19 11:20:28;;;;;;;5.57;3.95;;;34.20;55.40;;;;;;6201388;28;20050;-81
2023/06/19 11:23:31;;;;;;;8.43;3.88;;;33.90;55.20;;;;;;6200693;28;20148;-82
2023/06/19 11:26:38;;;;;;;4.25;3.85;;;34.00;55.30;;;;;;6200950;28;20050;-82
2023/06/19 11:29:41;;;;;;;6.53;4.32;;;34.20;54.90;;;;;;6189539;28;20047;-81
2023/06/19 11:32:48;;;;;;;9.02;4.65;;;34.20;54.50;;;;;;6192039;28;20413;-81
2023/06/19 11:35:51;;;;;;;5.10;3.50;;;34.00;54.30;;;;;;6197762;28;20046;-82
2023/06/19 11:38:53;;;;;;;6.03;3.80;;;33.80;54.40;;;;;;6199650;28;20057;-80
2023/06/19 11:41:55;;;;;;;5.60;4.07;;;33.50;54.70;;;;;;6200139;28;20049;-81
2023/06/19 11:44:58;;;;;;;5.53;4.13;;;33.30;55.00;;;;;;6203799;28;20553;-81
2023/06/19 11:48:06;;;;;;;5.20;3.65;;;33.50;55.20;;;;;;6200602;28;20101;-82
2023/06/19 11:51:09;;;;;;;10.50;3.58;;;33.90;54.70;;;;;;6200111;28;20054;-81
2023/06/19 11:54:13;;;;;;;7.97;4.22;;;34.40;54.30;;;;;;6200381;28;20051;-81
2023/06/19 11:57:14;;;;;;;4.72;4.25;;;34.90;53.60;;;;;;6200321;28;20050;-82
2023/06/19 12:00:17;;;;;;;8.35;3.67;;;35.20;53.20;;;;;;6201079;28;20065;-82
2023/06/19 12:03:20;;;;;;;3.95;3.55;;;35.50;52.80;;;;;;6192424;28;20061;-82
2023/06/19 12:06:25;;;;;;;8.27;4.43;;;35.90;52.00;;;;;;6199530;28;20074;-81
2023/06/19 12:09:27;;;;;;;5.07;4.60;;;36.00;51.30;;;;;;6198822;28;20050;-80
2023/06/19 12:12:29;;;;;;;4.20;3.90;;;36.10;51.10;;;;;;6198079;28;20213;-81
2023/06/19 12:15:31;;;;;;;4.47;4.10;;;36.10;50.90;;;;;;6192599;28;20373;-80
2023/06/19 12:18:34;;;;;;;4.18;3.88;;;36.20;50.70;;;;;;6200717;28;20486;-80
2023/06/19 12:21:36;;;;;;;4.22;3.92;;;36.20;50.50;;;;;;6191823;28;20053;-81
2023/06/19 12:24:37;;;;;;;4.20;3.80;;;36.20;50.30;;;;;;6199732;28;20054;-80
2023/06/19 12:27:39;;;;;;;3.35;3.08;;;36.00;50.20;;;;;;6198968;28;20128;-79
2023/06/19 12:30:41;;;;;;;4.13;3.58;;;35.90;50.30;;;;;;6199549;28;20057;-79
2023/06/19 12:33:44;;;;;;;5.78;4.25;;;35.70;50.60;;;;;;6190775;28;20050;-80
2023/06/19 12:36:46;;;;;;;4.13;3.83;;;35.60;50.70;;;;;;6197871;28;20479;-80
2023/06/19 12:39:48;;;;;;;3.83;3.53;;;35.80;50.50;;;;;;6199784;28;20049;-79
2023/06/19 12:42:50;;;;;;;6.57;3.45;;;35.80;50.20;;;;;;6190805;28;20038;-80
2023/06/19 12:45:52;;;;;;;4.13;3.72;;;35.80;49.80;;;;;;6199587;28;20046;-79
2023/06/19 12:48:55;;;;;;;4.13;3.72;;;35.50;50.80;;;;;;6198597;28;20045;-80
2023/06/19 12:51:56;;;;;;;4.32;3.72;;;35.40;50.40;;;;;;6195707;28;20129;-80
2023/06/19 12:54:59;;;;;;;4.05;3.72;;;35.50;50.10;;;;;;6196285;28;20057;-79
2023/06/19 12:58:01;;;;;;;3.72;3.20;;;35.50;50.50;;;;;;6196429;28;20173;-81
2023/06/19 13:01:03;;;;;;;3.70;3.40;;;35.40;49.80;;;;;;6197373;28;20133;-80
2023/06/19 13:04:06;;;;;;;4.22;3.92;;;35.20;50.00;;;;;;6194804;28;20068;-79
2023/06/19 13:07:07;;;;;;;3.67;3.38;;;35.00;50.10;;;;;;6193002;28;20057;-79
2023/06/19 13:10:10;;;;;;;4.28;3.25;;;35.10;49.90;;;;;;6193057;28;20058;-79
2023/06/19 13:13:13;;;;;;;6.22;3.72;;;35.20;49.70;;;;;;6194233;28;20049;-79
2023/06/19 13:16:15;;;;;;;4.35;3.15;;;35.50;49.30;;;;;;6197478;28;20450;-80
2023/06/19 13:19:18;;;;;;;5.07;3.67;;;35.80;48.60;;;;;;6193185;28;20453;-80
2023/06/19 13:22:20;;;;;;;5.47;3.63;;;36.00;47.80;;;;;;6197080;28;20050;-80
2023/06/19 13:25:22;;;;;;;4.10;3.47;;;35.90;47.80;;;;;;6199607;28;20042;-79
2023/06/19 13:28:23;;;;;;;3.80;3.50;;;35.70;48.00;;;;;;6202028;28;20058;-80
2023/06/19 13:31:25;;;;;;;3.70;3.40;;;35.50;48.10;;;;;;6201213;28;20047;-80
2023/06/19 13:34:28;;;;;;;3.95;3.55;;;35.20;49.00;;;;;;6199542;28;20307;-80
2023/06/19 13:37:31;;;;;;;4.00;3.70;;;35.00;48.90;;;;;;6200958;28;20449;-80
2023/06/19 13:40:32;;;;;;;4.85;3.60;;;34.80;49.30;;;;;;6201809;28;20105;-80
2023/06/19 13:43:34;;;;;;;3.63;3.33;;;34.80;49.50;;;;;;6198045;28;20050;-80
2023/06/19 13:46:36;;;;;;;3.28;3.08;;;34.90;49.50;;;;;;6199326;28;20185;-78
2023/06/19 13:49:39;;;;;;;4.05;3.75;;;35.00;49.40;;;;;;6196789;28;20405;-79
2023/06/19 13:52:41;;;;;;;3.63;3.33;;;35.20;48.90;;;;;;6199749;28;22485;-79
2023/06/19 13:55:43;;;;;;;4.93;4.03;;;35.30;48.80;;;;;;6199616;28;20090;-79
2023/06/19 13:58:44;;;;;;;6.18;3.45;;;35.60;48.30;;;;;;6200941;28;20141;-80
2023/06/19 14:01:46;;;;;;;3.72;3.30;;;35.70;48.10;;;;;;6201360;28;20046;-79
2023/06/19 14:04:49;;;;;;;5.47;4.07;;;35.60;48.30;;;;;;6200743;28;20045;-80
2023/06/19 14:07:51;;;;;;;4.15;3.65;;;35.70;47.90;;;;;;6199184;28;20038;-80
2023/06/19 14:10:53;;;;;;;4.05;3.00;;;35.90;47.70;;;;;;6196643;28;20553;-79
2023/06/19 14:13:55;;;;;;;3.28;2.97;;;36.00;46.80;;;;;;6199297;28;20704;-78
2023/06/19 14:16:57;;;;;;;4.90;4.18;;;35.90;47.10;;;;;;6197846;28;20050;-79
2023/06/19 14:20:00;;;;;;;3.38;2.75;;;35.80;47.10;;;;;;6200929;28;20042;-79
2023/06/19 14:23:02;;;;;;;2.95;2.67;;;35.70;46.70;;;;;;6199396;28;20051;-80
2023/06/19 14:26:04;;;;;;;3.25;2.95;;;35.50;46.30;;;;;;6195679;28;20053;-80
2023/06/19 14:29:07;;;;;;;5.28;3.17;;;35.40;45.70;;;;;;6197349;28;20078;-80
2023/06/19 14:32:08;;;;;;;3.40;3.10;;;35.20;45.60;;;;;;6200219;28;20054;-80
2023/06/19 14:35:12;;;;;;;3.80;3.30;;;35.00;45.70;;;;;;6197379;28;20513;-80
2023/06/19 14:38:14;;;;;;;2.88;2.67;;;35.10;46.50;;;;;;6196117;28;20047;-79
2023/06/19 14:41:16;;;;;;;3.63;3.33;;;35.30;46.60;;;;;;6195632;28;20521;-79
2023/06/19 14:44:17;;;;;;;4.25;3.10;;;35.40;46.70;;;;;;6193741;28;20057;-79
2023/06/19 14:47:19;;;;;;;3.65;3.35;;;35.60;46.80;;;;;;6197495;28;21212;-79
2023/06/19 14:50:22;;;;;;;6.47;3.22;;;35.70;46.60;;;;;;6212144;28;20046;-78
2023/06/19 14:53:24;;;;;;;3.60;3.30;;;35.80;46.60;;;;;;6216178;28;20073;-77
2023/06/19 14:56:25;;;;;;;3.53;3.22;;;35.70;46.70;;;;;;6212257;28;20501;-79
2023/06/19 14:59:27;;;;;;;5.40;4.82;;;35.70;47.00;;;;;;6200543;28;20384;-78
2023/06/19 15:02:29;;;;;;;4.13;3.63;;;35.50;47.60;;;;;;6204339;28;20514;-77
2023/06/19 15:05:33;;;;;;;4.07;3.67;;;35.20;48.00;;;;;;6207499;28;20061;-77
2023/06/19 15:08:38;;;;;;;5.40;4.40;;;35.00;48.50;;;;;;6205666;28;20056;-77
2023/06/19 15:11:39;;;;;;;5.75;4.45;;;34.90;49.80;;;;;;6203037;28;20065;-78
2023/06/19 15:14:41;;;;;;;4.25;3.90;;;34.60;49.20;;;;;;6200895;28;20046;-78
2023/06/19 15:17:43;;;;;;;7.03;4.03;;;34.50;49.40;;;;;;6194861;28;20069;-78
2023/06/19 15:20:46;;;;;;;4.43;4.03;;;34.10;49.50;;;;;;6195784;28;20070;-79
2023/06/19 15:23:48;;;;;;;4.70;3.85;;;33.80;50.00;;;;;;6198855;28;20052;-79
2023/06/19 15:26:51;;;;;;;4.75;4.25;;;33.60;50.50;;;;;;6198893;28;20054;-79
2023/06/19 15:29:52;;;;;;;4.78;4.47;;;33.30;51.00;;;;;;6195499;28;21408;-79
2023/06/19 15:32:54;;;;;;;4.75;4.07;;;32.90;51.60;;;;;;6195135;28;20062;-79
2023/06/19 15:35:57;;;;;;;4.88;4.25;;;32.70;52.40;;;;;;6198732;28;20421;-79
2023/06/19 15:38:59;;;;;;;4.75;4.07;;;32.50;52.80;;;;;;6192245;28;20050;-79
2023/06/19 15:42:00;;;;;;;4.28;3.95;;;32.50;53.10;;;;;;6194920;28;20057;-79
2023/06/19 15:45:02;;;;;;;4.78;4.38;;;32.40;53.20;;;;;;6193013;28;20050;-79
2023/06/19 15:48:04;;;;;;;4.63;4.32;;;32.20;53.20;;;;;;6195700;28;20056;-78